Carrboro, North Carolina
Current Conditions -  °F | °C
As of 2:56 AM on Friday 31 Oct 2014 (Local Time) from KIGX Reporting Station
Clear Clear  
Wind Chill: 44°   Ceiling: Unl
Heat Index: 47°   Visibility: 10mi
Dew Point: 40°   Wind: 7mph
Humidity: 77%   Direction: 20°NNE
Pressure: 29.99"   Gusts: NA
Location:  35.91°N, 79.08°W
Report Text: KIGX 310656Z AUTO 02006KT 10SM CLR 08/04 A2999 RMK AO2 SLP153 T00830044
Loading
Personal Weather Stations






























Interactive Weather Map New forecast layout! Learn more

10-Day Weather Forecast

Advertisements
Track Severe Weather on mobile